createdAt,value
2022-11-08T00:00:05.553Z,13.30
2022-11-08T00:02:34.024Z,13.30
2022-11-08T00:05:19.517Z,13.30
2022-11-08T00:08:06.505Z,13.30
2022-11-08T00:10:51.895Z,13.40
2022-11-08T00:13:37.357Z,13.30
2022-11-08T00:16:05.497Z,13.40
2022-11-08T00:18:33.472Z,13.40
2022-11-08T00:21:05.023Z,13.40
2022-11-08T00:23:34.332Z,13.40
2022-11-08T00:26:02.269Z,13.40
2022-11-08T00:28:30.377Z,13.40
2022-11-08T00:30:58.375Z,13.40
2022-11-08T00:33:26.397Z,13.50
2022-11-08T00:35:54.382Z,13.40
2022-11-08T00:38:22.349Z,13.50
2022-11-08T00:40:51.687Z,13.50
2022-11-08T00:43:19.624Z,13.50
2022-11-08T00:45:47.636Z,13.50
2022-11-08T00:48:15.944Z,13.60
2022-11-08T00:50:44.165Z,13.60
2022-11-08T00:53:12.111Z,13.60
2022-11-08T00:55:40.081Z,13.60
2022-11-08T00:58:09.824Z,13.60
2022-11-08T01:00:37.786Z,13.70
2022-11-08T01:03:20.885Z,13.60
2022-11-08T01:05:49.358Z,13.60
2022-11-08T01:08:18.758Z,13.60
2022-11-08T01:10:48.996Z,13.60
2022-11-08T01:13:18.943Z,13.70
2022-11-08T01:15:47.667Z,13.70
2022-11-08T01:18:18.581Z,13.70
2022-11-08T01:20:48.697Z,13.70
2022-11-08T01:23:17.505Z,13.70
2022-11-08T01:25:47.250Z,13.70
2022-11-08T01:28:15.996Z,13.70
2022-11-08T01:30:45.887Z,13.70
2022-11-08T01:33:14.884Z,13.70
2022-11-08T01:35:46.125Z,13.70
2022-11-08T01:38:14.878Z,13.70
2022-11-08T01:40:44.870Z,13.70
2022-11-08T01:43:37.168Z,13.70
2022-11-08T01:46:33.328Z,13.80
2022-11-08T01:49:29.157Z,13.80
2022-11-08T01:52:05.019Z,13.80
2022-11-08T01:54:39.684Z,13.70
2022-11-08T01:57:11.985Z,13.70
2022-11-08T01:59:43.077Z,13.70
2022-11-08T02:02:13.377Z,13.70
2022-11-08T02:04:43.274Z,13.60
2022-11-08T02:07:13.052Z,13.70
2022-11-08T02:09:44.481Z,13.60
2022-11-08T02:12:14.557Z,13.60
2022-11-08T02:14:42.884Z,13.60
2022-11-08T02:17:12.540Z,13.60
2022-11-08T02:19:43.677Z,13.50
2022-11-08T02:22:19.249Z,13.50
2022-11-08T02:24:49.334Z,13.50
2022-11-08T02:27:17.384Z,13.50
2022-11-08T02:29:45.653Z,13.50
2022-11-08T02:32:13.672Z,13.40
2022-11-08T02:34:45.295Z,13.40
2022-11-08T02:37:15.175Z,13.40
2022-11-08T02:39:44.162Z,13.30
2022-11-08T02:42:16.826Z,13.30
2022-11-08T02:44:44.820Z,13.20
2022-11-08T02:47:12.822Z,13.20
2022-11-08T02:49:40.808Z,13.10
2022-11-08T02:52:09.064Z,13.10
2022-11-08T02:54:37.059Z,13.10
2022-11-08T02:57:05.110Z,13.10
2022-11-08T02:59:34.492Z,13.10
2022-11-08T03:02:02.615Z,13.00
2022-11-08T03:04:30.761Z,13.00
2022-11-08T03:06:58.789Z,12.90
2022-11-08T03:09:27.373Z,12.90
2022-11-08T03:11:55.326Z,12.90
2022-11-08T03:14:23.704Z,12.80
2022-11-08T03:16:53.023Z,12.80
2022-11-08T03:19:20.940Z,12.80
2022-11-08T03:21:48.935Z,12.80
2022-11-08T03:24:17.044Z,12.70
2022-11-08T03:26:45.021Z,12.60
2022-11-08T03:29:12.950Z,12.60
2022-11-08T03:31:40.913Z,12.60
2022-11-08T03:34:10.663Z,12.60
2022-11-08T03:36:38.681Z,12.50
2022-11-08T03:39:06.635Z,12.50
2022-11-08T03:41:34.619Z,12.50
2022-11-08T03:44:02.801Z,12.50
2022-11-08T03:46:30.969Z,12.50
2022-11-08T03:48:58.897Z,12.50
2022-11-08T03:51:28.207Z,12.40
2022-11-08T03:53:56.173Z,12.40
2022-11-08T03:56:24.177Z,12.40
2022-11-08T03:58:52.109Z,12.40
2022-11-08T04:01:20.135Z,12.50
2022-11-08T04:03:48.161Z,12.50
2022-11-08T04:06:16.173Z,12.50
2022-11-08T04:08:45.512Z,12.40
2022-11-08T04:11:31.002Z,12.40
2022-11-08T04:14:12.960Z,12.40
2022-11-08T04:16:40.973Z,12.40
2022-11-08T04:19:26.671Z,12.30
2022-11-08T04:21:55.751Z,12.20
2022-11-08T04:24:25.153Z,12.20
2022-11-08T04:26:53.237Z,12.20
2022-11-08T04:29:21.485Z,12.20
2022-11-08T04:31:49.465Z,12.10
2022-11-08T04:34:17.453Z,12.20
2022-11-08T04:36:45.518Z,12.20
2022-11-08T04:39:13.607Z,12.20
2022-11-08T04:41:42.945Z,12.10
2022-11-08T04:44:11.767Z,12.10
2022-11-08T04:46:39.710Z,12.10
2022-11-08T04:49:07.664Z,12.00
2022-11-08T04:51:35.660Z,12.00
2022-11-08T04:54:06.302Z,12.00
2022-11-08T04:56:34.620Z,12.00
2022-11-08T04:59:08.263Z,12.00
2022-11-08T05:01:39.085Z,11.90
2022-11-08T05:04:07.222Z,11.90
2022-11-08T05:06:35.171Z,11.90
2022-11-08T05:09:03.268Z,11.90
2022-11-08T05:11:31.869Z,11.90
2022-11-08T05:14:00.051Z,11.90
2022-11-08T05:16:31.799Z,11.90
2022-11-08T05:19:00.191Z,11.90
2022-11-08T05:21:46.763Z,11.90
2022-11-08T05:24:17.351Z,11.90
2022-11-08T05:26:47.111Z,11.80
2022-11-08T05:29:16.798Z,11.80
2022-11-08T05:31:46.231Z,11.90
2022-11-08T05:34:14.183Z,11.80
2022-11-08T05:36:42.167Z,11.80
2022-11-08T05:39:10.159Z,11.80
2022-11-08T05:41:38.153Z,11.80
2022-11-08T05:44:06.234Z,11.80
2022-11-08T05:46:34.200Z,11.80
2022-11-08T05:49:03.640Z,11.80
2022-11-08T05:51:33.064Z,11.80
2022-11-08T05:54:00.998Z,11.80
2022-11-08T05:56:28.975Z,11.80
2022-11-08T05:58:57.228Z,11.80
2022-11-08T06:01:25.577Z,11.70
2022-11-08T06:03:53.624Z,11.70
2022-11-08T06:06:23.591Z,11.70
2022-11-08T06:08:53.275Z,11.80
2022-11-08T06:11:24.260Z,11.80
2022-11-08T06:13:52.866Z,11.80
2022-11-08T06:16:22.699Z,11.70
2022-11-08T06:18:50.979Z,11.80
2022-11-08T06:21:20.395Z,11.80
2022-11-08T06:23:52.408Z,11.80
2022-11-08T06:26:20.448Z,11.80
2022-11-08T06:28:48.448Z,11.90
2022-11-08T06:31:16.382Z,11.90
2022-11-08T06:33:44.354Z,11.90
2022-11-08T06:36:12.427Z,11.90
2022-11-08T06:38:40.392Z,11.90
2022-11-08T06:41:18.630Z,11.90
2022-11-08T06:43:46.656Z,11.90
2022-11-08T06:46:14.638Z,11.90
2022-11-08T06:48:42.662Z,11.90
2022-11-08T06:51:10.705Z,11.90
2022-11-08T06:53:38.818Z,12.00
2022-11-08T06:56:07.099Z,12.00
2022-11-08T06:58:36.467Z,11.90
2022-11-08T07:01:06.374Z,11.90
2022-11-08T07:03:34.829Z,11.90
2022-11-08T07:06:03.780Z,12.00
2022-11-08T07:08:32.143Z,12.00
2022-11-08T07:11:00.414Z,12.00
2022-11-08T07:13:28.425Z,12.00
2022-11-08T07:16:00.452Z,12.00
2022-11-08T07:18:28.989Z,12.00
2022-11-08T07:21:00.691Z,12.00
2022-11-08T07:23:28.742Z,12.00
2022-11-08T07:25:56.884Z,12.00
2022-11-08T07:28:24.853Z,12.00
2022-11-08T07:30:58.144Z,12.10
2022-11-08T07:33:27.565Z,12.10
2022-11-08T07:35:55.813Z,12.20
2022-11-08T07:38:26.025Z,12.20
2022-11-08T07:40:57.783Z,12.20
2022-11-08T07:43:27.019Z,12.20
2022-11-08T07:45:59.168Z,12.20
2022-11-08T07:48:30.221Z,12.20
2022-11-08T07:50:58.362Z,12.30
2022-11-08T07:53:26.366Z,12.30
2022-11-08T07:55:55.151Z,12.30
2022-11-08T07:58:23.327Z,12.40
2022-11-08T08:00:51.311Z,12.40
2022-11-08T08:03:19.707Z,12.40
2022-11-08T08:05:59.555Z,12.50
2022-11-08T08:08:29.007Z,12.50
2022-11-08T08:10:59.369Z,12.60
2022-11-08T08:13:27.499Z,12.60
2022-11-08T08:15:58.663Z,12.70
2022-11-08T08:18:26.728Z,12.80
2022-11-08T08:20:56.037Z,12.80
2022-11-08T08:23:24.028Z,12.90
2022-11-08T08:25:52.792Z,12.90
2022-11-08T08:28:20.823Z,13.00
2022-11-08T08:30:48.774Z,13.10
2022-11-08T08:33:33.959Z,13.10
2022-11-08T08:36:03.345Z,13.20
2022-11-08T08:38:31.676Z,13.30
2022-11-08T08:41:00.081Z,13.30
2022-11-08T08:43:28.565Z,13.40
2022-11-08T08:45:59.415Z,13.50
2022-11-08T08:48:27.533Z,13.60
2022-11-08T08:50:55.707Z,13.60
2022-11-08T08:53:25.491Z,13.70
2022-11-08T08:55:53.556Z,13.70
2022-11-08T08:58:22.228Z,13.70
2022-11-08T09:03:38.469Z,13.80
2022-11-08T09:06:06.605Z,13.80
2022-11-08T09:08:35.995Z,13.80
2022-11-08T09:11:04.330Z,13.90
2022-11-08T09:13:32.968Z,13.90
2022-11-08T09:16:03.464Z,13.80
2022-11-08T09:18:32.300Z,13.80
2022-11-08T09:21:01.413Z,13.90
2022-11-08T09:23:29.478Z,13.90
2022-11-08T09:25:59.804Z,13.80
2022-11-08T09:28:31.252Z,13.80
2022-11-08T09:31:02.577Z,13.90
2022-11-08T09:33:30.819Z,13.90
2022-11-08T09:36:00.825Z,13.90
2022-11-08T09:38:29.585Z,13.90
2022-11-08T09:41:15.199Z,14.00
2022-11-08T09:44:03.789Z,14.00
2022-11-08T09:46:40.354Z,13.90
2022-11-08T09:49:15.049Z,14.00
2022-11-08T09:51:43.391Z,14.00
2022-11-08T09:54:19.718Z,14.00
2022-11-08T09:56:51.427Z,14.00
2022-11-08T09:59:34.410Z,14.00
2022-11-08T10:02:02.697Z,14.10
2022-11-08T10:04:33.915Z,14.10
2022-11-08T10:07:15.346Z,14.10
2022-11-08T10:09:56.234Z,14.20
2022-11-08T10:12:33.393Z,14.30
2022-11-08T10:15:15.649Z,14.30
2022-11-08T10:18:09.691Z,14.30
2022-11-08T10:20:51.061Z,14.40
2022-11-08T10:23:22.654Z,14.40
2022-11-08T10:25:55.295Z,14.40
2022-11-08T10:28:29.357Z,14.50
2022-11-08T10:30:57.872Z,14.50
2022-11-08T10:33:34.728Z,14.50
2022-11-08T10:36:07.572Z,14.60
2022-11-08T10:38:45.966Z,14.60
2022-11-08T10:41:22.286Z,14.60
2022-11-08T10:43:58.877Z,14.60
2022-11-08T10:46:38.337Z,14.70
2022-11-08T10:49:14.854Z,14.70
2022-11-08T10:51:44.911Z,14.70
2022-11-08T10:54:46.418Z,14.70
2022-11-08T10:57:16.501Z,14.80
2022-11-08T10:59:46.820Z,14.80
2022-11-08T11:02:24.596Z,14.90
2022-11-08T11:04:54.579Z,14.90
2022-11-08T11:07:33.890Z,14.90
2022-11-08T11:10:23.736Z,14.90
2022-11-08T11:12:52.778Z,15.00
2022-11-08T11:15:22.199Z,15.00
2022-11-08T11:17:50.296Z,15.00
2022-11-08T11:20:24.233Z,15.00
2022-11-08T11:22:53.828Z,15.00
2022-11-08T11:25:24.147Z,15.10
2022-11-08T11:27:56.198Z,15.20
2022-11-08T11:30:29.378Z,15.10
2022-11-08T11:33:03.698Z,15.20
2022-11-08T11:35:43.159Z,15.30
2022-11-08T11:38:23.586Z,15.30
2022-11-08T11:40:54.103Z,15.30
2022-11-08T11:43:30.152Z,15.30
2022-11-08T11:46:06.223Z,15.40
2022-11-08T11:48:43.234Z,15.40
2022-11-08T11:51:12.119Z,15.40
2022-11-08T11:53:47.501Z,15.50
2022-11-08T11:56:41.572Z,15.50
2022-11-08T11:59:32.747Z,15.60
2022-11-08T12:02:36.191Z,15.60
2022-11-08T12:05:19.734Z,15.70
2022-11-08T12:07:53.420Z,15.80
2022-11-08T12:10:28.086Z,15.80
2022-11-08T12:13:03.379Z,15.80
2022-11-08T12:15:39.709Z,15.80
2022-11-08T12:18:43.063Z,15.80
2022-11-08T12:21:14.799Z,15.80
2022-11-08T12:24:17.125Z,15.90
2022-11-08T12:26:52.376Z,16.00
2022-11-08T12:29:25.874Z,16.00
2022-11-08T12:32:14.490Z,16.10
2022-11-08T12:34:54.768Z,16.10
2022-11-08T12:37:39.861Z,16.10
2022-11-08T12:40:20.205Z,16.10
2022-11-08T12:42:59.314Z,16.00
2022-11-08T12:45:48.048Z,16.10
2022-11-08T12:48:27.201Z,16.10
2022-11-08T12:51:04.457Z,16.10
2022-11-08T12:53:53.769Z,16.20
2022-11-08T12:56:25.609Z,16.20
2022-11-08T12:58:55.913Z,16.10
2022-11-08T13:01:24.659Z,16.10
2022-11-08T13:04:22.291Z,16.10
2022-11-08T13:06:58.751Z,16.10
2022-11-08T13:09:38.924Z,16.00
2022-11-08T13:12:16.835Z,16.00
2022-11-08T13:14:44.931Z,16.00
2022-11-08T13:17:18.081Z,16.00
2022-11-08T13:20:03.663Z,15.90
2022-11-08T13:23:01.809Z,15.90
2022-11-08T13:25:43.926Z,15.90
2022-11-08T13:28:38.333Z,15.90
2022-11-08T13:31:27.758Z,15.90
2022-11-08T13:34:22.770Z,15.90
2022-11-08T13:37:05.649Z,15.90
2022-11-08T13:39:57.035Z,15.90
2022-11-08T13:42:41.267Z,15.90
2022-11-08T13:45:28.948Z,15.90
2022-11-08T13:48:06.544Z,15.90
2022-11-08T13:50:51.997Z,15.90
2022-11-08T13:53:49.682Z,16.00
2022-11-08T13:56:50.388Z,15.90
2022-11-08T13:59:52.120Z,16.00
2022-11-08T14:02:53.338Z,16.00
2022-11-08T14:05:32.628Z,16.00
2022-11-08T14:08:18.049Z,16.00
2022-11-08T14:11:08.659Z,16.00
2022-11-08T14:14:01.532Z,16.00
2022-11-08T14:16:33.526Z,16.00
2022-11-08T14:19:18.305Z,15.90
2022-11-08T14:21:55.219Z,15.90
2022-11-08T14:24:26.299Z,15.90
2022-11-08T14:26:54.720Z,15.90
2022-11-08T14:29:25.599Z,15.90
2022-11-08T14:32:05.290Z,15.90
2022-11-08T14:34:35.223Z,15.90
2022-11-08T14:37:04.555Z,15.90
2022-11-08T14:39:34.241Z,15.90
2022-11-08T14:42:03.973Z,16.00
2022-11-08T14:44:33.739Z,16.00
2022-11-08T14:47:01.882Z,16.10
2022-11-08T14:49:34.762Z,16.10
2022-11-08T14:52:15.101Z,16.20
2022-11-08T14:54:45.842Z,16.30
2022-11-08T14:57:38.603Z,16.30
2022-11-08T15:00:17.404Z,16.30
2022-11-08T15:02:48.739Z,16.30
2022-11-08T15:05:40.341Z,16.30
2022-11-08T15:08:19.757Z,16.30
2022-11-08T15:10:56.869Z,16.40
2022-11-08T15:13:26.639Z,16.30
2022-11-08T15:16:02.176Z,16.30
2022-11-08T15:18:33.827Z,16.30
2022-11-08T15:21:04.643Z,16.30
2022-11-08T15:23:53.265Z,16.20
2022-11-08T15:26:24.535Z,16.30
2022-11-08T15:29:01.280Z,16.30
2022-11-08T15:31:33.839Z,16.20
2022-11-08T15:34:02.043Z,16.30
2022-11-08T15:36:34.257Z,16.30
2022-11-08T15:39:03.479Z,16.30
2022-11-08T15:41:34.648Z,16.30
2022-11-08T15:44:23.506Z,16.30
2022-11-08T15:46:54.656Z,16.30
2022-11-08T15:49:24.314Z,16.30
2022-11-08T15:51:54.632Z,16.30
2022-11-08T15:54:24.215Z,16.30
2022-11-08T15:56:54.293Z,16.40
2022-11-08T15:59:25.782Z,16.30
2022-11-08T16:01:59.033Z,16.30
2022-11-08T16:04:28.831Z,16.30
2022-11-08T16:06:57.314Z,16.30
2022-11-08T16:09:25.396Z,16.30
2022-11-08T16:11:53.425Z,16.40
2022-11-08T16:14:24.389Z,16.30
2022-11-08T16:16:52.703Z,16.40
2022-11-08T16:19:23.624Z,16.40
2022-11-08T16:21:52.554Z,16.40
2022-11-08T16:24:20.651Z,16.40
2022-11-08T16:26:50.108Z,16.40
2022-11-08T16:29:21.336Z,16.40
2022-11-08T16:31:50.296Z,16.40
2022-11-08T16:34:18.688Z,16.40
2022-11-08T16:36:49.423Z,16.40
2022-11-08T16:39:19.527Z,16.40
2022-11-08T16:41:47.650Z,16.40
2022-11-08T16:44:15.931Z,16.40
2022-11-08T16:46:44.157Z,16.40
2022-11-08T16:49:20.638Z,16.40
2022-11-08T16:51:51.013Z,16.30
2022-11-08T16:54:20.880Z,16.30
2022-11-08T16:56:49.034Z,16.30
2022-11-08T16:59:16.997Z,16.30
2022-11-08T17:01:45.480Z,16.30
2022-11-08T17:04:13.556Z,16.30
2022-11-08T17:06:41.612Z,16.30
2022-11-08T17:09:11.163Z,16.20
2022-11-08T17:11:39.964Z,16.20
2022-11-08T17:14:08.304Z,16.20
2022-11-08T17:16:36.601Z,16.20
2022-11-08T17:19:04.905Z,16.10
2022-11-08T17:21:48.308Z,16.10
2022-11-08T17:24:21.894Z,16.20
2022-11-08T17:26:50.521Z,16.10
2022-11-08T17:29:18.586Z,16.10
2022-11-08T17:31:46.583Z,16.10
2022-11-08T17:34:14.669Z,16.20
2022-11-08T17:36:42.966Z,16.20
2022-11-08T17:39:14.039Z,16.10
2022-11-08T17:41:43.536Z,16.10
2022-11-08T17:44:11.618Z,16.00
2022-11-08T17:46:39.620Z,16.00
2022-11-08T17:49:07.718Z,16.00
2022-11-08T17:51:36.555Z,16.00
2022-11-08T17:54:04.901Z,16.00
2022-11-08T17:56:33.022Z,16.10
2022-11-08T17:59:02.906Z,16.10
2022-11-08T18:01:32.195Z,16.10
2022-11-08T18:04:00.390Z,16.20
2022-11-08T18:06:28.471Z,16.20
2022-11-08T18:08:57.262Z,16.20
2022-11-08T18:11:25.781Z,16.20
2022-11-08T18:13:53.751Z,16.20
2022-11-08T18:16:23.152Z,16.20
2022-11-08T18:18:51.789Z,16.20
2022-11-08T18:21:20.785Z,16.10
2022-11-08T18:23:49.711Z,16.20
2022-11-08T18:26:18.964Z,16.20
2022-11-08T18:28:47.201Z,16.20
2022-11-08T18:31:17.325Z,16.20
2022-11-08T18:33:48.680Z,16.20
2022-11-08T18:36:19.813Z,16.20
2022-11-08T18:38:49.139Z,16.20
2022-11-08T18:41:19.829Z,16.20
2022-11-08T18:43:48.305Z,16.20
2022-11-08T18:46:22.382Z,16.30
2022-11-08T18:48:52.166Z,16.30
2022-11-08T18:51:22.149Z,16.30
2022-11-08T18:53:52.219Z,16.30
2022-11-08T18:56:20.771Z,16.20
2022-11-08T18:58:49.521Z,16.30
2022-11-08T19:01:17.832Z,16.20
2022-11-08T19:03:45.899Z,16.20
2022-11-08T19:06:15.231Z,16.20
2022-11-08T19:08:43.228Z,16.20
2022-11-08T19:11:12.954Z,16.30
2022-11-08T19:13:41.888Z,16.30
2022-11-08T19:16:13.536Z,16.20
2022-11-08T19:18:42.215Z,16.20
2022-11-08T19:21:13.652Z,16.20
2022-11-08T19:23:43.507Z,16.20
2022-11-08T19:26:13.779Z,16.20
2022-11-08T19:28:45.056Z,16.20
2022-11-08T19:31:13.744Z,16.20
2022-11-08T19:33:41.905Z,16.10
2022-11-08T19:36:13.885Z,16.10
2022-11-08T19:38:43.620Z,16.10
2022-11-08T19:41:13.429Z,16.20
2022-11-08T19:43:43.616Z,16.20
2022-11-08T19:46:15.137Z,16.20
2022-11-08T19:48:45.505Z,16.20
2022-11-08T19:51:16.216Z,16.20
2022-11-08T19:53:45.992Z,16.20
2022-11-08T19:56:16.946Z,16.20
2022-11-08T19:58:45.488Z,16.20
2022-11-08T20:01:16.860Z,16.20
2022-11-08T20:03:45.100Z,16.10
2022-11-08T20:06:14.161Z,16.10
2022-11-08T20:08:42.391Z,16.10
2022-11-08T20:11:16.224Z,16.10
2022-11-08T20:13:44.494Z,16.00
2022-11-08T20:16:13.699Z,16.00
2022-11-08T20:18:42.354Z,16.00
2022-11-08T20:21:12.136Z,16.00
2022-11-08T20:23:42.490Z,16.10
2022-11-08T20:26:17.388Z,16.10
2022-11-08T20:28:55.203Z,16.10
2022-11-08T20:31:24.996Z,16.00
2022-11-08T20:33:54.389Z,16.00
2022-11-08T20:36:24.629Z,16.00
2022-11-08T20:38:56.244Z,16.00
2022-11-08T20:41:26.010Z,16.00
2022-11-08T20:43:54.143Z,16.10
2022-11-08T20:46:22.964Z,16.00
2022-11-08T20:48:51.505Z,16.00
2022-11-08T20:51:21.483Z,16.00
2022-11-08T20:53:50.027Z,16.00
2022-11-08T20:56:19.541Z,16.00
2022-11-08T20:58:50.335Z,16.00
2022-11-08T21:01:21.060Z,16.00
2022-11-08T21:03:49.867Z,16.10
2022-11-08T21:06:26.695Z,16.10
2022-11-08T21:09:00.831Z,16.10
2022-11-08T21:11:34.549Z,16.10
2022-11-08T21:14:05.131Z,16.20
2022-11-08T21:16:52.628Z,16.20
2022-11-08T21:19:21.671Z,16.20
2022-11-08T21:21:49.654Z,16.20
2022-11-08T21:24:18.023Z,16.20
2022-11-08T21:26:45.968Z,16.20
2022-11-08T21:29:15.323Z,16.20
2022-11-08T21:31:43.281Z,16.20
2022-11-08T21:34:11.460Z,16.20
2022-11-08T21:36:39.646Z,16.20
2022-11-08T21:39:07.623Z,16.20
2022-11-08T21:41:35.587Z,16.20
2022-11-08T21:44:03.591Z,16.20
2022-11-08T21:46:33.661Z,16.30
2022-11-08T21:49:03.273Z,16.20
2022-11-08T21:51:31.559Z,16.20
2022-11-08T21:54:00.419Z,16.20
2022-11-08T21:56:31.094Z,16.10
2022-11-08T21:59:00.116Z,16.10
2022-11-08T22:01:30.683Z,16.10
2022-11-08T22:04:00.964Z,16.10
2022-11-08T22:06:29.794Z,16.10
2022-11-08T22:08:57.875Z,16.10
2022-11-08T22:11:25.945Z,16.10
2022-11-08T22:13:53.899Z,16.10
2022-11-08T22:16:22.084Z,16.10
2022-11-08T22:19:06.287Z,16.00
2022-11-08T22:21:39.488Z,16.00
2022-11-08T22:24:08.917Z,16.00
2022-11-08T22:26:37.901Z,16.00
2022-11-08T22:29:06.354Z,15.90
2022-11-08T22:31:34.913Z,15.90
2022-11-08T22:34:03.287Z,15.90
2022-11-08T22:36:31.489Z,15.90
2022-11-08T22:39:01.110Z,16.00
2022-11-08T22:41:29.443Z,15.90
2022-11-08T22:43:57.520Z,15.90
2022-11-08T22:46:25.826Z,16.00
2022-11-08T22:48:53.817Z,16.00
2022-11-08T22:51:21.742Z,15.90
2022-11-08T22:53:49.744Z,15.90
2022-11-08T22:56:19.084Z,15.90
2022-11-08T22:58:47.027Z,15.90
2022-11-08T23:01:16.826Z,15.90
2022-11-08T23:03:46.629Z,15.90
2022-11-08T23:06:15.180Z,15.90
2022-11-08T23:08:43.615Z,15.90
2022-11-08T23:11:29.315Z,15.90
2022-11-08T23:14:12.731Z,15.90
2022-11-08T23:16:42.781Z,15.90
2022-11-08T23:19:30.769Z,15.90
2022-11-08T23:22:16.415Z,15.90
2022-11-08T23:24:44.716Z,15.90
2022-11-08T23:27:39.950Z,15.90
2022-11-08T23:30:30.889Z,15.80
2022-11-08T23:32:58.950Z,15.80
2022-11-08T23:35:26.932Z,15.80
2022-11-08T23:37:55.601Z,15.70
2022-11-08T23:40:40.978Z,15.80
2022-11-08T23:43:29.987Z,15.80
2022-11-08T23:46:05.201Z,15.70
2022-11-08T23:48:33.194Z,15.70
2022-11-08T23:51:01.526Z,15.70
2022-11-08T23:53:29.526Z,15.70
2022-11-08T23:55:58.161Z,15.70
2022-11-08T23:58:27.489Z,15.70
